createdAt,value
2022-07-29T00:01:44.211Z,3.67
2022-07-29T00:04:12.438Z,3.40
2022-07-29T00:06:42.160Z,3.50
2022-07-29T00:09:09.816Z,3.40
2022-07-29T00:11:39.829Z,3.55
2022-07-29T00:14:08.398Z,3.40
2022-07-29T00:16:41.321Z,3.50
2022-07-29T00:19:09.045Z,3.35
2022-07-29T00:21:38.551Z,3.10
2022-07-29T00:24:07.135Z,3.50
2022-07-29T00:26:34.763Z,3.05
2022-07-29T00:29:32.368Z,3.30
2022-07-29T00:31:51.500Z,3.58
2022-07-29T00:34:37.804Z,3.40
2022-07-29T00:37:05.588Z,3.30
2022-07-29T00:39:35.743Z,3.60
2022-07-29T00:42:05.599Z,3.15
2022-07-29T00:44:38.224Z,3.15
2022-07-29T00:47:06.237Z,3.05
2022-07-29T00:49:34.322Z,3.38
2022-07-29T00:52:03.510Z,3.08
2022-07-29T00:54:31.429Z,3.45
2022-07-29T00:57:02.435Z,3.10
2022-07-29T00:59:34.747Z,3.67
2022-07-29T01:02:06.105Z,3.50
2022-07-29T01:07:02.929Z,3.17
2022-07-29T01:09:42.810Z,3.45
2022-07-29T01:12:18.971Z,3.00
2022-07-29T01:14:47.858Z,3.40
2022-07-29T01:17:28.352Z,3.20
2022-07-29T01:20:14.372Z,3.22
2022-07-29T01:23:13.862Z,3.50
2022-07-29T01:25:53.160Z,2.90
2022-07-29T01:28:47.384Z,3.58
2022-07-29T01:31:25.029Z,3.10
2022-07-29T01:34:00.374Z,3.17
2022-07-29T01:36:40.290Z,3.20
2022-07-29T01:39:13.219Z,3.40
2022-07-29T01:41:47.038Z,3.33
2022-07-29T01:44:35.954Z,3.25
2022-07-29T01:47:08.411Z,3.45
2022-07-29T01:49:37.634Z,3.25
2022-07-29T01:52:08.970Z,3.20
2022-07-29T01:54:40.035Z,3.30
2022-07-29T01:57:08.468Z,3.22
2022-07-29T01:59:36.276Z,3.50
2022-07-29T02:02:04.698Z,3.60
2022-07-29T02:04:32.423Z,3.65
2022-07-29T02:07:03.441Z,3.45
2022-07-29T02:09:34.206Z,3.13
2022-07-29T02:12:02.457Z,3.15
2022-07-29T02:14:37.532Z,3.20
2022-07-29T02:17:05.624Z,3.33
2022-07-29T02:19:33.773Z,3.22
2022-07-29T02:22:01.594Z,3.58
2022-07-29T02:24:30.208Z,3.42
2022-07-29T02:26:58.203Z,3.60
2022-07-29T02:29:27.456Z,3.03
2022-07-29T02:31:55.385Z,3.35
2022-07-29T02:34:23.046Z,3.33
2022-07-29T02:36:51.214Z,3.50
2022-07-29T02:39:18.869Z,3.50
2022-07-29T02:41:52.271Z,3.50
2022-07-29T02:44:21.222Z,3.63
2022-07-29T02:47:05.280Z,3.45
2022-07-29T02:49:42.097Z,3.67
2022-07-29T02:52:41.126Z,3.70
2022-07-29T02:55:19.630Z,3.47
2022-07-29T02:57:54.335Z,3.88
2022-07-29T03:00:25.314Z,3.80
2022-07-29T03:02:57.814Z,3.60
2022-07-29T03:05:25.773Z,3.47
2022-07-29T03:08:13.283Z,4.05
2022-07-29T03:10:41.517Z,3.88
2022-07-29T03:13:09.498Z,3.30
2022-07-29T03:15:37.670Z,3.90
2022-07-29T03:18:07.874Z,3.00
2022-07-29T03:20:35.632Z,3.63
2022-07-29T03:23:03.407Z,3.72
2022-07-29T03:25:31.329Z,3.25
2022-07-29T03:27:58.995Z,3.72
2022-07-29T03:30:27.605Z,3.33
2022-07-29T03:32:56.576Z,3.55
2022-07-29T03:35:26.520Z,3.50
2022-07-29T03:37:55.245Z,3.20
2022-07-29T03:40:28.903Z,3.30
2022-07-29T03:42:56.595Z,3.80
2022-07-29T03:45:24.250Z,3.83
2022-07-29T03:48:01.307Z,3.67
2022-07-29T03:50:30.215Z,3.60
2022-07-29T03:53:17.743Z,3.60
2022-07-29T03:55:48.514Z,3.15
2022-07-29T03:58:16.748Z,3.83
2022-07-29T04:00:46.984Z,3.20
2022-07-29T04:03:15.779Z,3.72
2022-07-29T04:05:43.596Z,4.03
2022-07-29T04:08:12.236Z,3.67
2022-07-29T04:10:40.452Z,3.60
2022-07-29T04:13:08.511Z,3.65
2022-07-29T04:15:36.568Z,4.07
2022-07-29T04:18:04.684Z,4.13
2022-07-29T04:20:32.465Z,3.63
2022-07-29T04:23:00.109Z,3.80
2022-07-29T04:25:29.054Z,4.40
2022-07-29T04:28:02.530Z,3.85
2022-07-29T04:30:31.536Z,4.20
2022-07-29T04:33:02.008Z,3.63
2022-07-29T04:35:31.163Z,3.90
2022-07-29T04:38:06.933Z,3.50
2022-07-29T04:40:35.064Z,3.60
2022-07-29T04:43:06.334Z,3.70
2022-07-29T04:45:34.496Z,3.50
2022-07-29T04:48:02.245Z,3.40
2022-07-29T04:50:33.778Z,3.53
2022-07-29T04:53:01.473Z,3.40
2022-07-29T04:55:30.418Z,3.35
2022-07-29T04:57:58.639Z,3.40
2022-07-29T05:00:32.127Z,3.28
2022-07-29T05:03:01.581Z,3.38
2022-07-29T05:05:31.455Z,3.00
2022-07-29T05:07:59.105Z,3.53
2022-07-29T05:10:27.419Z,2.83
2022-07-29T05:12:55.851Z,3.20
2022-07-29T05:15:24.294Z,3.10
2022-07-29T05:17:52.186Z,2.80
2022-07-29T05:20:27.140Z,3.42
2022-07-29T05:22:58.821Z,3.42
2022-07-29T05:25:40.669Z,3.42
2022-07-29T05:28:12.454Z,2.92
2022-07-29T05:30:40.161Z,2.90
2022-07-29T05:33:08.134Z,2.83
2022-07-29T05:35:38.265Z,3.00
2022-07-29T05:38:06.232Z,2.75
2022-07-29T05:40:35.346Z,3.05
2022-07-29T05:43:03.613Z,2.58
2022-07-29T05:45:31.363Z,2.67
2022-07-29T05:47:59.004Z,2.25
2022-07-29T05:50:27.236Z,2.33
2022-07-29T05:52:57.279Z,2.33
2022-07-29T05:55:26.339Z,2.17
2022-07-29T05:57:54.328Z,2.22
2022-07-29T06:00:22.034Z,2.50
2022-07-29T06:02:51.108Z,2.40
2022-07-29T06:05:18.967Z,2.53
2022-07-29T06:07:50.980Z,2.53
2022-07-29T06:10:20.353Z,2.70
2022-07-29T06:12:51.639Z,1.90
2022-07-29T06:15:20.576Z,1.98
2022-07-29T06:17:59.159Z,1.80
2022-07-29T06:20:32.292Z,2.22
2022-07-29T06:23:05.600Z,2.60
2022-07-29T06:25:37.790Z,2.30
2022-07-29T06:28:05.704Z,2.22
2022-07-29T06:30:34.019Z,2.83
2022-07-29T06:33:03.095Z,2.63
2022-07-29T06:35:38.935Z,2.33
2022-07-29T06:38:25.070Z,2.40
2022-07-29T06:41:03.907Z,2.10
2022-07-29T06:43:51.731Z,2.40
2022-07-29T06:46:24.153Z,2.20
2022-07-29T06:48:53.103Z,2.10
2022-07-29T06:51:22.430Z,2.10
2022-07-29T06:53:58.222Z,1.85
2022-07-29T06:56:28.337Z,1.90
2022-07-29T06:58:56.054Z,1.60
2022-07-29T07:01:24.650Z,1.98
2022-07-29T07:03:52.336Z,2.28
2022-07-29T07:06:20.099Z,1.88
2022-07-29T07:08:49.137Z,1.85
2022-07-29T07:11:16.796Z,1.95
2022-07-29T07:13:44.454Z,1.80
2022-07-29T07:16:12.161Z,1.60
2022-07-29T07:18:43.590Z,1.60
2022-07-29T07:21:12.611Z,1.50
2022-07-29T07:23:47.816Z,1.70
2022-07-29T07:26:16.436Z,1.50
2022-07-29T07:28:44.712Z,1.50
2022-07-29T07:31:15.487Z,1.90
2022-07-29T07:33:43.430Z,1.42
2022-07-29T07:36:11.603Z,1.35
2022-07-29T07:38:42.125Z,1.40
2022-07-29T07:41:10.433Z,1.33
2022-07-29T07:43:39.048Z,1.77
2022-07-29T07:46:07.716Z,1.40
2022-07-29T07:48:37.445Z,1.70
2022-07-29T07:51:06.988Z,1.70
2022-07-29T07:53:37.645Z,1.58
2022-07-29T07:56:10.832Z,1.60
2022-07-29T07:58:48.145Z,1.58
2022-07-29T08:01:19.162Z,1.40
2022-07-29T08:03:48.664Z,1.50
2022-07-29T08:06:17.056Z,1.98
2022-07-29T08:08:46.785Z,1.45
2022-07-29T08:11:15.845Z,1.58
2022-07-29T08:13:44.255Z,2.00
2022-07-29T08:16:16.727Z,1.83
2022-07-29T08:18:45.306Z,1.45
2022-07-29T08:21:17.023Z,1.65
2022-07-29T08:24:00.706Z,1.33
2022-07-29T08:26:30.312Z,1.75
2022-07-29T08:28:58.086Z,1.58
2022-07-29T08:31:28.159Z,1.77
2022-07-29T08:33:57.397Z,1.48
2022-07-29T08:36:27.317Z,1.48
2022-07-29T08:38:55.280Z,1.50
2022-07-29T08:41:23.345Z,1.65
2022-07-29T08:43:52.246Z,1.80
2022-07-29T08:46:20.685Z,1.42
2022-07-29T08:48:51.730Z,1.60
2022-07-29T08:51:20.988Z,1.77
2022-07-29T08:53:51.682Z,1.40
2022-07-29T08:56:20.258Z,1.65
2022-07-29T08:58:51.921Z,1.52
2022-07-29T09:01:35.646Z,1.50
2022-07-29T09:04:08.981Z,1.60
2022-07-29T09:06:38.660Z,1.40
2022-07-29T09:09:08.460Z,2.15
2022-07-29T09:11:36.531Z,1.77
2022-07-29T09:14:07.760Z,1.70
2022-07-29T09:16:56.272Z,1.42
2022-07-29T09:19:36.987Z,1.40
2022-07-29T09:22:06.806Z,1.42
2022-07-29T09:24:35.419Z,1.67
2022-07-29T09:27:03.869Z,1.30
2022-07-29T09:29:36.145Z,1.42
2022-07-29T09:32:08.170Z,1.60
2022-07-29T09:34:37.314Z,1.77
2022-07-29T09:37:06.082Z,1.50
2022-07-29T09:39:39.171Z,1.60
2022-07-29T09:42:07.244Z,1.50
2022-07-29T09:44:49.606Z,1.50
2022-07-29T09:47:20.262Z,1.27
2022-07-29T09:49:54.634Z,1.50
2022-07-29T09:52:23.274Z,1.70
2022-07-29T09:54:55.575Z,1.40
2022-07-29T09:57:31.037Z,1.67
2022-07-29T10:00:09.114Z,1.50
2022-07-29T10:02:45.836Z,1.30
2022-07-29T10:05:27.343Z,1.58
2022-07-29T10:08:07.251Z,1.50
2022-07-29T10:10:38.387Z,1.50
2022-07-29T10:13:36.113Z,1.30
2022-07-29T10:16:04.388Z,1.60
2022-07-29T10:18:32.510Z,1.50
2022-07-29T10:21:03.269Z,1.48
2022-07-29T10:23:46.187Z,1.90
2022-07-29T10:26:16.000Z,1.60
2022-07-29T10:28:43.983Z,1.80
2022-07-29T10:31:46.339Z,1.38
2022-07-29T10:34:33.270Z,2.10
2022-07-29T10:37:45.938Z,1.92
2022-07-29T10:40:47.616Z,2.40
2022-07-29T10:43:29.734Z,2.90
2022-07-29T10:45:59.199Z,2.58
2022-07-29T10:48:28.612Z,2.20
2022-07-29T10:53:54.835Z,2.40
2022-07-29T10:56:30.288Z,2.30
2022-07-29T10:59:23.572Z,2.10
2022-07-29T11:02:02.743Z,2.17
2022-07-29T11:04:47.408Z,2.00
2022-07-29T11:07:18.714Z,1.77
2022-07-29T11:10:15.694Z,1.80
2022-07-29T11:12:44.469Z,2.00
2022-07-29T11:15:21.080Z,1.60
2022-07-29T11:17:55.171Z,1.75
2022-07-29T11:20:49.889Z,1.70
2022-07-29T11:26:12.844Z,1.50
2022-07-29T11:28:55.730Z,1.35
2022-07-29T11:31:36.015Z,1.58
2022-07-29T11:34:34.811Z,1.55
2022-07-29T11:37:18.669Z,1.55
2022-07-29T11:40:01.844Z,1.48
2022-07-29T11:42:37.478Z,1.50
2022-07-29T11:45:44.412Z,1.45
2022-07-29T11:48:28.934Z,1.60
2022-07-29T11:50:52.014Z,1.48
2022-07-29T11:53:20.841Z,1.50
2022-07-29T11:55:52.114Z,1.60
2022-07-29T11:58:27.399Z,1.65
2022-07-29T12:00:56.421Z,1.45
2022-07-29T12:03:33.266Z,1.38
2022-07-29T12:06:18.370Z,1.75
2022-07-29T12:08:51.897Z,1.65
2022-07-29T12:11:22.464Z,1.50
2022-07-29T12:13:54.505Z,1.40
2022-07-29T12:16:38.849Z,1.60
2022-07-29T12:19:09.995Z,1.48
2022-07-29T12:21:53.712Z,1.30
2022-07-29T12:24:26.778Z,1.80
2022-07-29T12:27:00.127Z,1.50
2022-07-29T12:29:34.893Z,1.60
2022-07-29T12:32:05.909Z,1.55
2022-07-29T12:34:43.645Z,1.45
2022-07-29T12:37:12.320Z,1.27
2022-07-29T12:39:41.341Z,1.42
2022-07-29T12:42:18.464Z,1.20
2022-07-29T12:44:50.687Z,1.45
2022-07-29T12:47:20.572Z,1.45
2022-07-29T12:52:33.611Z,1.58
2022-07-29T12:55:03.051Z,1.27
2022-07-29T12:57:31.417Z,1.33
2022-07-29T13:00:04.949Z,1.60
2022-07-29T13:02:35.869Z,1.55
2022-07-29T13:05:09.793Z,1.35
2022-07-29T13:07:55.804Z,1.15
2022-07-29T13:10:26.238Z,1.55
2022-07-29T13:13:11.627Z,1.27
2022-07-29T13:16:07.493Z,1.27
2022-07-29T13:18:37.542Z,1.55
2022-07-29T13:21:15.465Z,1.40
2022-07-29T13:23:47.024Z,1.55
2022-07-29T13:26:17.656Z,1.50
2022-07-29T13:28:45.529Z,1.38
2022-07-29T13:31:14.671Z,1.35
2022-07-29T13:33:42.730Z,1.42
2022-07-29T13:36:13.984Z,1.20
2022-07-29T13:38:43.621Z,1.48
2022-07-29T13:41:11.651Z,1.20
2022-07-29T13:43:40.490Z,1.20
2022-07-29T13:46:09.717Z,1.52
2022-07-29T13:48:38.308Z,1.77
2022-07-29T13:51:06.369Z,1.40
2022-07-29T13:53:34.470Z,1.80
2022-07-29T13:56:04.520Z,1.80
2022-07-29T13:58:34.745Z,1.73
2022-07-29T14:01:06.231Z,1.80
2022-07-29T14:03:34.487Z,1.38
2022-07-29T14:06:05.966Z,1.52
2022-07-29T14:08:35.170Z,1.30
2022-07-29T14:11:06.860Z,1.70
2022-07-29T14:13:36.656Z,1.60
2022-07-29T14:16:04.467Z,1.48
2022-07-29T14:18:36.293Z,1.35
2022-07-29T14:21:04.997Z,1.40
2022-07-29T14:23:39.124Z,1.25
2022-07-29T14:26:13.184Z,1.63
2022-07-29T14:28:45.139Z,1.50
2022-07-29T14:31:13.056Z,1.30
2022-07-29T14:33:41.556Z,1.50
2022-07-29T14:36:10.636Z,1.38
2022-07-29T14:38:40.075Z,1.30
2022-07-29T14:41:12.704Z,1.40
2022-07-29T14:43:40.988Z,1.52
2022-07-29T14:46:09.161Z,1.60
2022-07-29T14:48:37.160Z,1.25
2022-07-29T14:51:05.318Z,1.60
2022-07-29T14:53:33.266Z,1.70
2022-07-29T14:56:20.900Z,1.60
2022-07-29T14:58:51.906Z,4.07
2022-07-29T15:01:19.914Z,2.00
2022-07-29T15:03:47.902Z,2.22
2022-07-29T15:06:16.051Z,1.90
2022-07-29T15:08:44.931Z,1.60
2022-07-29T15:11:13.929Z,1.77
2022-07-29T15:13:41.695Z,1.77
2022-07-29T15:16:10.332Z,2.10
2022-07-29T15:18:39.481Z,1.40
2022-07-29T15:21:10.104Z,1.48
2022-07-29T15:23:41.442Z,1.50
2022-07-29T15:26:09.208Z,1.45
2022-07-29T15:31:08.726Z,1.90
2022-07-29T15:33:36.592Z,1.77
2022-07-29T15:36:05.887Z,2.20
2022-07-29T15:38:34.098Z,1.80
2022-07-29T15:41:02.200Z,1.77
2022-07-29T15:43:29.910Z,1.90
2022-07-29T15:46:16.137Z,1.80
2022-07-29T15:48:45.151Z,1.70
2022-07-29T15:51:14.586Z,1.60
2022-07-29T15:53:42.417Z,2.00
2022-07-29T15:56:10.829Z,1.90
2022-07-29T15:58:38.489Z,1.52
2022-07-29T16:01:06.846Z,1.83
2022-07-29T16:03:34.965Z,1.75
2022-07-29T16:06:02.717Z,1.65
2022-07-29T16:08:31.094Z,1.90
2022-07-29T16:10:59.681Z,1.90
2022-07-29T16:13:28.957Z,1.60
2022-07-29T16:16:02.227Z,1.40
2022-07-29T16:18:32.981Z,1.70
2022-07-29T16:21:02.225Z,1.63
2022-07-29T16:23:31.159Z,1.50
2022-07-29T16:26:01.504Z,1.92
2022-07-29T16:28:32.795Z,1.50
2022-07-29T16:31:02.754Z,1.50
2022-07-29T16:33:54.937Z,1.85
2022-07-29T16:36:19.461Z,1.80
2022-07-29T16:38:47.627Z,1.55
2022-07-29T16:41:16.694Z,1.70
2022-07-29T16:43:47.230Z,1.70
2022-07-29T16:46:18.590Z,1.65
2022-07-29T16:48:47.918Z,1.88
2022-07-29T16:51:17.195Z,1.77
2022-07-29T16:53:46.014Z,1.42
2022-07-29T16:56:18.423Z,1.48
2022-07-29T16:58:46.349Z,1.58
2022-07-29T17:01:14.428Z,1.67
2022-07-29T17:04:03.257Z,1.30
2022-07-29T17:06:32.881Z,1.90
2022-07-29T17:09:02.034Z,1.48
2022-07-29T17:14:24.099Z,1.52
2022-07-29T17:17:00.984Z,1.98
2022-07-29T17:19:31.524Z,1.70
2022-07-29T17:22:12.900Z,1.67
2022-07-29T17:24:48.454Z,2.00
2022-07-29T17:27:17.160Z,1.88
2022-07-29T17:29:45.768Z,1.52
2022-07-29T17:32:13.676Z,1.40
2022-07-29T17:34:42.263Z,1.80
2022-07-29T17:37:11.450Z,1.95
2022-07-29T17:39:41.488Z,1.95
2022-07-29T17:42:13.871Z,1.90
2022-07-29T17:44:43.565Z,2.00
2022-07-29T17:47:15.568Z,1.63
2022-07-29T17:49:45.548Z,2.50
2022-07-29T17:52:13.509Z,2.60
2022-07-29T17:54:41.269Z,3.00
2022-07-29T17:57:08.991Z,3.42
2022-07-29T17:59:36.979Z,3.67
2022-07-29T18:02:05.081Z,3.72
2022-07-29T18:04:37.236Z,3.40
2022-07-29T18:07:06.300Z,3.85
2022-07-29T18:09:34.012Z,3.03
2022-07-29T18:12:01.802Z,3.05
2022-07-29T18:14:29.824Z,3.53
2022-07-29T18:16:57.884Z,3.88
2022-07-29T18:19:25.885Z,4.38
2022-07-29T18:21:54.534Z,5.25
2022-07-29T18:24:25.825Z,7.03
2022-07-29T18:26:56.846Z,5.43
2022-07-29T18:29:25.084Z,4.88
2022-07-29T18:31:55.438Z,5.27
2022-07-29T18:34:23.317Z,4.25
2022-07-29T18:36:51.380Z,5.78
2022-07-29T18:39:20.644Z,5.20
2022-07-29T18:41:51.188Z,6.38
2022-07-29T18:44:22.951Z,6.15
2022-07-29T18:46:54.479Z,5.97
2022-07-29T18:49:22.757Z,5.78
2022-07-29T18:51:51.523Z,6.90
2022-07-29T18:54:19.640Z,6.90
2022-07-29T18:56:47.405Z,5.57
2022-07-29T18:59:20.800Z,6.45
2022-07-29T19:01:49.271Z,6.18
2022-07-29T19:04:17.515Z,8.45
2022-07-29T19:06:46.978Z,8.85
2022-07-29T19:09:14.849Z,9.30
2022-07-29T19:11:44.741Z,9.45
2022-07-29T19:14:12.468Z,11.10
2022-07-29T19:16:40.228Z,13.63
2022-07-29T19:19:08.502Z,13.10
2022-07-29T19:21:37.615Z,12.77
2022-07-29T19:24:09.263Z,13.98
2022-07-29T19:26:46.694Z,11.75
2022-07-29T19:29:15.334Z,11.00
2022-07-29T19:31:43.772Z,10.15
2022-07-29T19:34:13.203Z,8.20
2022-07-29T19:36:43.962Z,7.68
2022-07-29T19:39:11.763Z,6.90
2022-07-29T19:41:39.754Z,7.30
2022-07-29T19:44:09.095Z,6.90
2022-07-29T19:46:39.656Z,6.75
2022-07-29T19:49:07.871Z,6.53
2022-07-29T19:51:36.295Z,5.70
2022-07-29T19:54:04.246Z,5.55
2022-07-29T19:56:32.209Z,5.35
2022-07-29T19:59:00.895Z,5.82
2022-07-29T20:01:32.899Z,5.32
2022-07-29T20:04:00.993Z,5.28
2022-07-29T20:06:28.790Z,5.68
2022-07-29T20:09:00.667Z,4.80
2022-07-29T20:11:32.513Z,5.53
2022-07-29T20:14:05.495Z,5.07
2022-07-29T20:16:33.365Z,4.57
2022-07-29T20:19:03.749Z,4.50
2022-07-29T20:21:34.123Z,4.63
2022-07-29T20:24:08.849Z,5.07
2022-07-29T20:26:38.338Z,4.97
2022-07-29T20:29:06.102Z,4.20
2022-07-29T20:31:33.940Z,4.15
2022-07-29T20:34:02.160Z,4.55
2022-07-29T20:36:30.414Z,4.05
2022-07-29T20:39:00.164Z,4.30
2022-07-29T20:41:29.216Z,4.30
2022-07-29T20:43:58.024Z,4.53
2022-07-29T20:46:25.773Z,4.82
2022-07-29T20:48:54.146Z,4.60
2022-07-29T20:51:22.112Z,4.78
2022-07-29T20:53:49.880Z,4.13
2022-07-29T20:56:18.014Z,3.97
2022-07-29T20:58:48.333Z,4.72
2022-07-29T21:01:16.136Z,4.13
2022-07-29T21:03:44.103Z,4.18
2022-07-29T21:06:12.074Z,4.15
2022-07-29T21:08:39.833Z,5.07
2022-07-29T21:11:08.519Z,4.35
2022-07-29T21:13:41.163Z,4.28
2022-07-29T21:16:18.808Z,3.95
2022-07-29T21:18:47.027Z,4.30
2022-07-29T21:21:15.553Z,3.97
2022-07-29T21:23:43.717Z,4.05
2022-07-29T21:26:13.085Z,3.40
2022-07-29T21:28:44.059Z,3.88
2022-07-29T21:31:13.901Z,3.83
2022-07-29T21:33:42.640Z,3.58
2022-07-29T21:36:46.085Z,2.95
2022-07-29T21:39:01.096Z,3.75
2022-07-29T21:41:32.402Z,3.15
2022-07-29T21:44:01.278Z,3.45
2022-07-29T21:46:30.253Z,3.10
2022-07-29T21:48:58.404Z,3.53
2022-07-29T21:51:26.768Z,4.00
2022-07-29T21:53:54.442Z,3.60
2022-07-29T21:56:24.552Z,3.42
2022-07-29T21:58:55.933Z,3.40
2022-07-29T22:01:24.134Z,3.60
2022-07-29T22:03:52.391Z,3.10
2022-07-29T22:06:21.852Z,3.35
2022-07-29T22:08:50.270Z,3.20
2022-07-29T22:11:18.029Z,3.63
2022-07-29T22:13:48.341Z,2.80
2022-07-29T22:16:16.277Z,3.00
2022-07-29T22:18:47.036Z,3.05
2022-07-29T22:21:15.312Z,2.75
2022-07-29T22:23:43.417Z,2.80
2022-07-29T22:26:13.278Z,2.50
2022-07-29T22:28:42.286Z,3.00
2022-07-29T22:31:10.040Z,2.88
2022-07-29T22:33:39.555Z,3.20
2022-07-29T22:36:07.733Z,2.90
2022-07-29T22:38:37.465Z,2.80
2022-07-29T22:41:05.180Z,3.08
2022-07-29T22:43:33.067Z,3.70
2022-07-29T22:46:01.721Z,3.40
2022-07-29T22:48:29.791Z,3.00
2022-07-29T22:50:57.463Z,3.22
2022-07-29T22:53:25.140Z,3.38
2022-07-29T22:55:54.666Z,3.10
2022-07-29T22:58:22.573Z,3.30
2022-07-29T23:00:50.333Z,3.30
2022-07-29T23:03:21.416Z,3.05
2022-07-29T23:05:50.950Z,3.20
2022-07-29T23:08:20.160Z,3.40
2022-07-29T23:10:48.104Z,3.40
2022-07-29T23:13:15.753Z,3.58
2022-07-29T23:15:46.454Z,3.33
2022-07-29T23:18:17.444Z,3.65
2022-07-29T23:20:45.314Z,3.70
2022-07-29T23:23:15.268Z,3.45
2022-07-29T23:25:44.175Z,3.45
2022-07-29T23:28:13.395Z,3.40
2022-07-29T23:30:42.166Z,3.15
2022-07-29T23:33:09.953Z,3.38
2022-07-29T23:35:38.144Z,3.50
2022-07-29T23:38:07.640Z,3.45
2022-07-29T23:40:35.524Z,3.70
2022-07-29T23:43:03.576Z,3.13
2022-07-29T23:45:44.966Z,4.15
2022-07-29T23:48:16.763Z,3.53
2022-07-29T23:50:44.400Z,3.45
2022-07-29T23:53:12.441Z,3.90
2022-07-29T23:55:40.353Z,3.65
2022-07-29T23:58:08.751Z,3.22
